Star Princess — ZCDD6 — position and weather

sailwx.info

Track history (hours):
 
Tides and Currents Weather Stations Pressure Air Temp Water Temp Dewpoint Dewpoint Depression Visibility Wind Speed Wind Dir Waves Ship Positions

Star Princess

Operator: Princess Cruises

Last reported at 2020-Mar-31 11:30 UTC. Time now 2020-Mar-31 12:07 UTC.
Position N 32°02' W 117°53'.

Length 289.6 m; beam 36 m; draft 8.4 m.

Type: Ship. MMSI: 310361000.

Date/timePositionNaut miles runAvg speedWind from/ knotsBaromVisibWave heightAir tempDewpointWater temp
2020-Mar-31 11:30N 32°02' W 117°53'1 1.5
2020-Mar-31 11:00N 32°03' W 117°53'1 1.5
2020-Mar-31 10:00N 32°04' W 117°52'1 1.5
2020-Mar-31 09:30N 32°05' W 117°51'1 1.3
2020-Mar-31 08:31N 32°06' W 117°50'1 1.2
2020-Mar-31 07:31N 32°07' W 117°50'1 1.0
2020-Mar-31 06:31N 32°08' W 117°49'2 1.5
2020-Mar-31 05:00N 32°09' W 117°47'1 1.9
2020-Mar-31 04:30N 32°10' W 117°47'2 1.9
2020-Mar-31 03:30N 32°12' W 117°46'6 2.2
2020-Mar-31 01:00N 32°17' W 117°44'12 8.0
2020-Mar-30 23:31N 32°05' W 117°43'12 6.0
2020-Mar-30 21:31N 31°60' W 117°30'510.1
2020-Mar-30 21:00N 31°58' W 117°25'34 9.2
2020-Mar-30 17:19N 31°44' W 118°01'24 2.0
2020-Mar-30 05:48N 32°05' W 117°47'1 2.0
2020-Mar-30 05:30N 32°05' W 117°47'2 2.1
2020-Mar-30 04:30N 32°07' W 117°46'6 2.2
2020-Mar-30 02:00N 32°13' W 117°45'1 2.3
2020-Mar-30 01:31N 32°14' W 117°45'17 5.5
2020-Mar-29 22:30N 31°58' W 117°41'9 8.8
2020-Mar-29 21:31N 32°06' W 117°39'7 7.3
2020-Mar-29 20:30N 32°12' W 117°34'8 7.7
2020-Mar-29 19:29N 32°04' W 117°31'7 3.7
2020-Mar-29 17:33N 32°03' W 117°23'0 9.8
2020-Mar-29 17:31N 32°03' W 117°23'4 4.3
2020-Mar-29 16:30N 32°08' W 117°23'2 1.1
2020-Mar-29 14:31N 32°09' W 117°26'1 1.2
2020-Mar-29 13:30N 32°09' W 117°27'1 1.3
2020-Mar-29 13:01N 32°09' W 117°28'1 1.5
2020-Mar-29 12:31N 32°10' W 117°28'2 1.5
2020-Mar-29 11:30N 32°10' W 117°30'3 1.4
2020-Mar-29 09:00N 32°12' W 117°34'7 1.3
2020-Mar-29 03:30N 32°15' W 117°41'1 1.4
2020-Mar-29 02:30N 32°15' W 117°43'10 4.1
2020-Mar-29 00:01N 32°05' W 117°39'5 8.4
2020-Mar-28 23:26N 32°01' W 117°43'9 1.1
2020-Mar-28 15:16N 31°56' W 117°34'4 1.4
2020-Mar-28 12:14N 31°59' W 117°38'1 1.5
2020-Mar-28 11:31N 31°60' W 117°39'5 1.6
2020-Mar-28 08:30N 32°02' W 117°43'3 1.7
2020-Mar-28 06:28N 32°04' W 117°47'1 1.7
2020-Mar-28 06:00N 32°05' W 117°48'13 4.3
2020-Mar-28 03:00N 32°12' W 117°35'1 1.7
2020-Mar-28 02:30N 32°12' W 117°36'1 1.6
2020-Mar-28 02:01N 32°12' W 117°37'2 1.7
2020-Mar-28 01:00N 32°13' W 117°39'2 0.9
2020-Mar-27 22:30N 32°15' W 117°40'2 1.5
2020-Mar-27 21:30N 32°15' W 117°42'8 0.4
2020-Mar-27 03:30N 32°07' W 117°43'3 0.2
2020-Mar-26 09:38N 32°04' W 117°41'0 2.5
2020-Mar-26 09:28N 32°04' W 117°41'4 2.2
2020-Mar-26 07:46N 32°08' W 117°40'1 2.6
2020-Mar-26 07:21N 32°09' W 117°39'310.1
2020-Mar-26 07:00N 32°12' W 117°37'612.3
2020-Mar-26 06:30N 32°18' W 117°38'713.4
2020-Mar-26 06:00N 32°25' W 117°41'713.3
2020-Mar-26 05:30N 32°31' W 117°44'1312.9
2020-Mar-26 04:30N 32°43' W 117°50'1312.8
2020-Mar-26 03:31N 32°55' W 117°52'5411.9
2020-Mar-25 23:00N 33°45' W 118°17'0 0.1
2020-Mar-25 20:30N 33°45' W 118°17'0 0.0
2020-Mar-25 15:30N 33°45' W 118°17'4 2.2
2020-Mar-25 13:30N 33°41' W 118°14'5 9.5
2020-Mar-25 12:59N 33°37' W 118°11'2610.3
2020-Mar-25 10:30N 33°13' W 117°60'2110.6
2020-Mar-25 08:30N 32°53' W 117°50'510.7
2020-Mar-25 08:00N 32°48' W 117°49'2711.0
2020-Mar-25 05:30N 32°22' W 117°39'25 2.4
2020-Mar-24 19:00N 32°00' W 117°25'8 1.2
2020-Mar-24 12:42N 32°02' W 117°34'3 1.2
2020-Mar-24 09:59N 32°03' W 117°38'1 1.0
2020-Mar-24 08:29N 32°03' W 117°39'1 1.1
2020-Mar-24 07:55N 32°03' W 117°40'0 1.1
2020-Mar-24 07:30N 32°03' W 117°40'2 0.8
2020-Mar-24 04:30N 32°03' W 117°43'3 0.8
2020-Mar-24 00:28N 32°06' W 117°44'7 7.7
2020-Mar-23 23:31N 32°13' W 117°40'10 3.8
2020-Mar-23 21:00N 32°17' W 117°29'2 1.0
2020-Mar-23 19:30N 32°17' W 117°31'6 1.0
2020-Mar-23 13:30N 32°14' W 117°38'0 0.8
2020-Mar-23 12:57N 32°14' W 117°38'1 0.8
2020-Mar-23 11:30N 32°13' W 117°39'0 0.8
2020-Mar-23 11:00N 32°13' W 117°40'1 0.9
2020-Mar-23 09:30N 32°12' W 117°40'1 0.9
2020-Mar-23 08:01N 32°11' W 117°42'2 0.3
2020-Mar-23 02:30N 32°11' W 117°40'4 8.5
2020-Mar-23 02:00N 32°15' W 117°38'3 6.3
2020-Mar-23 01:31N 32°16' W 117°34'3 2.2
2020-Mar-23 00:00N 32°14' W 117°32'2 1.5
2020-Mar-22 22:31N 32°14' W 117°34'1 1.4
2020-Mar-22 22:00N 32°13' W 117°35'3 1.6
2020-Mar-22 20:01N 32°13' W 117°39'1 1.3
2020-Mar-22 19:30N 32°13' W 117°39'1 1.2
2020-Mar-22 18:31N 32°12' W 117°40'1 1.1
2020-Mar-22 17:30N 32°11' W 117°41'1 0.9
2020-Mar-22 16:00N 32°10' W 117°42'2 0.6
2020-Mar-22 12:00N 32°07' W 117°41'4 2.2
2020-Mar-22 10:00N 32°06' W 117°36'4 2.4 090 / 81019.710.8 14.511.917.0
2020-Mar-22 08:29N 32°07' W 117°40'1 0.3
2020-Mar-22 06:01N 32°07' W 117°41'0 0.3
2020-Mar-22 05:01N 32°07' W 117°41'1 0.7
2020-Mar-22 03:30N 32°08' W 117°42'1 0.8
2020-Mar-22 02:31N 32°08' W 117°43'15 5.0
2020-Mar-21 23:25N 32°04' W 117°26'1 0.8
2020-Mar-21 22:30N 32°04' W 117°26'2 0.8
2020-Mar-21 20:29N 32°05' W 117°28'1 0.5
2020-Mar-21 19:14N 32°05' W 117°29'0 0.3
2020-Mar-21 18:00N 32°05' W 117°29'0 0.2
2020-Mar-21 17:29N 32°05' W 117°29'0 0.3
2020-Mar-21 16:29N 32°05' W 117°30'1 0.4
2020-Mar-21 13:30N 32°06' W 117°30'  
Track history (hours):
 
Tides and Currents Weather Stations Pressure Air Temp Water Temp Dewpoint Dewpoint Depression Visibility Wind Speed Wind Dir Waves Ship Positions

Star Princess

Operator: Princess Cruises

Last reported at 2020-Mar-31 11:30 UTC. Time now 2020-Mar-31 12:07 UTC.
Position N 32°02' W 117°53'.

Length 289.6 m; beam 36 m; draft 8.4 m.

Type: Ship. MMSI: 310361000.

Date/timePositionNaut miles runAvg speedWind from/ knotsBaromVisibWave heightAir tempDewpointWater temp
2020-Mar-31 11:30N 32°02' W 117°53'1 1.5
2020-Mar-31 11:00N 32°03' W 117°53'1 1.5
2020-Mar-31 10:00N 32°04' W 117°52'1 1.5
2020-Mar-31 09:30N 32°05' W 117°51'1 1.3
2020-Mar-31 08:31N 32°06' W 117°50'1 1.2
2020-Mar-31 07:31N 32°07' W 117°50'1 1.0
2020-Mar-31 06:31N 32°08' W 117°49'2 1.5
2020-Mar-31 05:00N 32°09' W 117°47'1 1.9
2020-Mar-31 04:30N 32°10' W 117°47'2 1.9
2020-Mar-31 03:30N 32°12' W 117°46'6 2.2
2020-Mar-31 01:00N 32°17' W 117°44'12 8.0
2020-Mar-30 23:31N 32°05' W 117°43'12 6.0
2020-Mar-30 21:31N 31°60' W 117°30'510.1
2020-Mar-30 21:00N 31°58' W 117°25'34 9.2
2020-Mar-30 17:19N 31°44' W 118°01'24 2.0
2020-Mar-30 05:48N 32°05' W 117°47'1 2.0
2020-Mar-30 05:30N 32°05' W 117°47'2 2.1
2020-Mar-30 04:30N 32°07' W 117°46'6 2.2
2020-Mar-30 02:00N 32°13' W 117°45'1 2.3
2020-Mar-30 01:31N 32°14' W 117°45'17 5.5
2020-Mar-29 22:30N 31°58' W 117°41'9 8.8
2020-Mar-29 21:31N 32°06' W 117°39'7 7.3
2020-Mar-29 20:30N 32°12' W 117°34'8 7.7
2020-Mar-29 19:29N 32°04' W 117°31'7 3.7
2020-Mar-29 17:33N 32°03' W 117°23'0 9.8
2020-Mar-29 17:31N 32°03' W 117°23'4 4.3
2020-Mar-29 16:30N 32°08' W 117°23'2 1.1
2020-Mar-29 14:31N 32°09' W 117°26'1 1.2
2020-Mar-29 13:30N 32°09' W 117°27'1 1.3
2020-Mar-29 13:01N 32°09' W 117°28'1 1.5
2020-Mar-29 12:31N 32°10' W 117°28'2 1.5
2020-Mar-29 11:30N 32°10' W 117°30'3 1.4
2020-Mar-29 09:00N 32°12' W 117°34'7 1.3
2020-Mar-29 03:30N 32°15' W 117°41'1 1.4
2020-Mar-29 02:30N 32°15' W 117°43'10 4.1
2020-Mar-29 00:01N 32°05' W 117°39'5 8.4
2020-Mar-28 23:26N 32°01' W 117°43'9 1.1
2020-Mar-28 15:16N 31°56' W 117°34'4 1.4
2020-Mar-28 12:14N 31°59' W 117°38'1 1.5
2020-Mar-28 11:31N 31°60' W 117°39'5 1.6
2020-Mar-28 08:30N 32°02' W 117°43'3 1.7
2020-Mar-28 06:28N 32°04' W 117°47'1 1.7
2020-Mar-28 06:00N 32°05' W 117°48'13 4.3
2020-Mar-28 03:00N 32°12' W 117°35'1 1.7
2020-Mar-28 02:30N 32°12' W 117°36'1 1.6
2020-Mar-28 02:01N 32°12' W 117°37'2 1.7
2020-Mar-28 01:00N 32°13' W 117°39'2 0.9
2020-Mar-27 22:30N 32°15' W 117°40'2 1.5
2020-Mar-27 21:30N 32°15' W 117°42'8 0.4
2020-Mar-27 03:30N 32°07' W 117°43'3 0.2
2020-Mar-26 09:38N 32°04' W 117°41'0 2.5
2020-Mar-26 09:28N 32°04' W 117°41'4 2.2
2020-Mar-26 07:46N 32°08' W 117°40'1 2.6
2020-Mar-26 07:21N 32°09' W 117°39'310.1
2020-Mar-26 07:00N 32°12' W 117°37'612.3
2020-Mar-26 06:30N 32°18' W 117°38'713.4
2020-Mar-26 06:00N 32°25' W 117°41'713.3
2020-Mar-26 05:30N 32°31' W 117°44'1312.9
2020-Mar-26 04:30N 32°43' W 117°50'1312.8
2020-Mar-26 03:31N 32°55' W 117°52'5411.9
2020-Mar-25 23:00N 33°45' W 118°17'0 0.1
2020-Mar-25 20:30N 33°45' W 118°17'0 0.0
2020-Mar-25 15:30N 33°45' W 118°17'4 2.2
2020-Mar-25 13:30N 33°41' W 118°14'5 9.5
2020-Mar-25 12:59N 33°37' W 118°11'2610.3
2020-Mar-25 10:30N 33°13' W 117°60'2110.6
2020-Mar-25 08:30N 32°53' W 117°50'510.7
2020-Mar-25 08:00N 32°48' W 117°49'2711.0
2020-Mar-25 05:30N 32°22' W 117°39'25 2.4
2020-Mar-24 19:00N 32°00' W 117°25'8 1.2
2020-Mar-24 12:42N 32°02' W 117°34'3 1.2
2020-Mar-24 09:59N 32°03' W 117°38'1 1.0
2020-Mar-24 08:29N 32°03' W 117°39'1 1.1
2020-Mar-24 07:55N 32°03' W 117°40'0 1.1
2020-Mar-24 07:30N 32°03' W 117°40'2 0.8
2020-Mar-24 04:30N 32°03' W 117°43'3 0.8
2020-Mar-24 00:28N 32°06' W 117°44'7 7.7
2020-Mar-23 23:31N 32°13' W 117°40'10 3.8
2020-Mar-23 21:00N 32°17' W 117°29'2 1.0
2020-Mar-23 19:30N 32°17' W 117°31'6 1.0
2020-Mar-23 13:30N 32°14' W 117°38'0 0.8
2020-Mar-23 12:57N 32°14' W 117°38'1 0.8
2020-Mar-23 11:30N 32°13' W 117°39'0 0.8
2020-Mar-23 11:00N 32°13' W 117°40'1 0.9
2020-Mar-23 09:30N 32°12' W 117°40'1 0.9
2020-Mar-23 08:01N 32°11' W 117°42'2 0.3
2020-Mar-23 02:30N 32°11' W 117°40'4 8.5
2020-Mar-23 02:00N 32°15' W 117°38'3 6.3
2020-Mar-23 01:31N 32°16' W 117°34'3 2.2
2020-Mar-23 00:00N 32°14' W 117°32'2 1.5
2020-Mar-22 22:31N 32°14' W 117°34'1 1.4
2020-Mar-22 22:00N 32°13' W 117°35'3 1.6
2020-Mar-22 20:01N 32°13' W 117°39'1 1.3
2020-Mar-22 19:30N 32°13' W 117°39'1 1.2
2020-Mar-22 18:31N 32°12' W 117°40'1 1.1
2020-Mar-22 17:30N 32°11' W 117°41'1 0.9
2020-Mar-22 16:00N 32°10' W 117°42'2 0.6
2020-Mar-22 12:00N 32°07' W 117°41'4 2.2
2020-Mar-22 10:00N 32°06' W 117°36'4 2.4 090 / 81019.710.8 14.511.917.0
2020-Mar-22 08:29N 32°07' W 117°40'1 0.3
2020-Mar-22 06:01N 32°07' W 117°41'0 0.3
2020-Mar-22 05:01N 32°07' W 117°41'1 0.7
2020-Mar-22 03:30N 32°08' W 117°42'1 0.8
2020-Mar-22 02:31N 32°08' W 117°43'15 5.0
2020-Mar-21 23:25N 32°04' W 117°26'1 0.8
2020-Mar-21 22:30N 32°04' W 117°26'2 0.8
2020-Mar-21 20:29N 32°05' W 117°28'1 0.5
2020-Mar-21 19:14N 32°05' W 117°29'0 0.3
2020-Mar-21 18:00N 32°05' W 117°29'0 0.2
2020-Mar-21 17:29N 32°05' W 117°29'0 0.3
2020-Mar-21 16:29N 32°05' W 117°30'1 0.4
2020-Mar-21 13:30N 32°06' W 117°30'  

Dump ship's entire track history